createdAt,value
2018-07-25T00:04:03.337Z,101035.86
2018-07-25T00:08:57.893Z,101037.95
2018-07-25T00:13:51.262Z,101043.87
2018-07-25T00:18:41.358Z,101037.37
2018-07-25T00:23:37.042Z,101032.89
2018-07-25T00:28:30.597Z,101035.41
2018-07-25T00:33:23.925Z,101039.88
2018-07-25T00:38:28.553Z,101046.31
2018-07-25T00:43:38.368Z,101039.50
2018-07-25T00:48:27.434Z,101038.16
2018-07-25T00:53:22.178Z,101037.47
2018-07-25T00:58:17.400Z,101036.50
2018-07-25T01:03:17.442Z,101038.09
2018-07-25T01:08:14.349Z,101034.39
2018-07-25T01:13:19.654Z,101035.53
2018-07-25T01:18:09.993Z,101032.85
2018-07-25T01:23:13.006Z,101032.53
2018-07-25T01:28:04.292Z,101028.68
2018-07-25T01:33:02.861Z,101034.02
2018-07-25T01:37:57.744Z,101032.30
2018-07-25T01:43:13.861Z,101043.87
2018-07-25T01:48:17.038Z,101039.91
2018-07-25T01:53:40.058Z,101042.72
2018-07-25T01:58:29.690Z,101039.93
2018-07-25T02:03:49.533Z,101039.47
2018-07-25T02:08:44.745Z,101047.79
2018-07-25T02:13:38.257Z,101046.47
2018-07-25T02:18:31.570Z,101038.71
2018-07-25T02:23:47.614Z,101037.55
2018-07-25T02:29:10.969Z,101038.09
2018-07-25T02:34:01.890Z,101052.84
2018-07-25T02:38:58.561Z,101056.05
2018-07-25T02:43:53.890Z,101060.53
2018-07-25T02:48:49.341Z,101066.26
2018-07-25T02:53:51.029Z,101065.03
2018-07-25T02:59:01.930Z,101071.55
2018-07-25T03:04:02.549Z,101067.45
2018-07-25T03:09:03.530Z,101065.98
2018-07-25T03:14:17.583Z,101075.68
2018-07-25T03:19:10.641Z,101071.50
2018-07-25T03:31:09.447Z,101083.72
2018-07-25T03:36:30.217Z,101086.53
2018-07-25T03:41:48.241Z,101083.33
2018-07-25T03:47:11.129Z,101085.74
2018-07-25T03:58:39.886Z,101088.73
2018-07-25T04:03:35.557Z,101088.66
2018-07-25T04:09:03.572Z,101092.00
2018-07-25T04:25:38.527Z,101106.48
2018-07-25T04:30:38.874Z,101104.30
2018-07-25T04:35:47.669Z,101108.30
2018-07-25T04:40:43.137Z,101117.08
2018-07-25T04:45:45.456Z,101125.50
2018-07-25T04:50:56.407Z,101132.06
2018-07-25T05:01:26.545Z,101129.53
2018-07-25T05:06:27.007Z,101133.94
2018-07-25T05:11:36.569Z,101132.67
2018-07-25T05:16:38.093Z,101138.47
2018-07-25T05:21:39.289Z,101140.95
2018-07-25T05:26:47.135Z,101150.33
2018-07-25T05:31:52.471Z,101160.88
2018-07-25T05:37:04.877Z,101159.53
2018-07-25T05:47:14.772Z,101159.91
2018-07-25T05:52:32.470Z,101167.77
2018-07-25T05:57:35.430Z,101170.84
2018-07-25T06:02:46.154Z,101177.00
2018-07-25T06:07:46.920Z,101176.55
2018-07-25T06:13:05.389Z,101173.21
2018-07-25T06:18:00.173Z,101179.36
2018-07-25T06:22:56.318Z,101180.03
2018-07-25T06:27:49.470Z,101183.88
2018-07-25T06:32:58.432Z,101188.90
2018-07-25T06:38:03.201Z,101185.12
2018-07-25T06:43:04.932Z,101191.50
2018-07-25T06:48:03.999Z,101188.73
2018-07-25T06:53:19.359Z,101193.60
2018-07-25T06:58:32.270Z,101195.74
2018-07-25T07:03:27.829Z,101200.02
2018-07-25T07:08:27.507Z,101193.55
2018-07-25T07:13:26.368Z,101203.97
2018-07-25T07:18:21.583Z,101204.15
2018-07-25T07:23:14.454Z,101214.02
2018-07-25T07:28:16.454Z,101219.27
2018-07-25T07:33:09.200Z,101216.80
2018-07-25T07:38:40.081Z,101207.25
2018-07-25T07:43:40.506Z,101207.12
2018-07-25T07:48:29.376Z,101204.23
2018-07-25T07:53:30.293Z,101207.75
2018-07-25T07:58:28.344Z,101205.19
2018-07-25T08:03:47.577Z,101203.94
2018-07-25T08:08:43.157Z,101207.30
2018-07-25T08:13:34.655Z,101215.91
2018-07-25T08:18:27.271Z,101217.11
2018-07-25T08:23:20.893Z,101213.80
2018-07-25T08:28:15.235Z,101212.73
2018-07-25T08:33:45.294Z,101209.33
2018-07-25T08:38:59.117Z,101211.36
2018-07-25T08:44:13.969Z,101206.41
2018-07-25T08:49:06.300Z,101209.41
2018-07-25T08:54:28.737Z,101204.02
2018-07-25T09:00:06.641Z,101202.91
2018-07-25T09:04:57.494Z,101204.65
2018-07-25T09:09:58.363Z,101208.90
2018-07-25T09:20:02.046Z,101207.09
2018-07-25T09:24:55.532Z,101202.59
2018-07-25T09:29:50.280Z,101207.33
2018-07-25T09:34:45.785Z,101206.30
2018-07-25T09:39:58.295Z,101210.87
2018-07-25T09:50:45.277Z,101200.41
2018-07-25T09:55:52.200Z,101204.72
2018-07-25T10:00:50.377Z,101205.39
2018-07-25T10:06:06.666Z,101204.64
2018-07-25T10:11:00.087Z,101211.39
2018-07-25T10:16:14.007Z,101208.66
2018-07-25T10:21:08.925Z,101205.94
2018-07-25T10:31:19.791Z,101196.27
2018-07-25T10:36:18.281Z,101197.97
2018-07-25T10:41:18.039Z,101195.14
2018-07-25T10:46:13.099Z,101183.16
2018-07-25T10:51:08.416Z,101177.22
2018-07-25T10:56:10.053Z,101175.08
2018-07-25T11:01:09.685Z,101175.45
2018-07-25T11:06:05.585Z,101175.48
2018-07-25T11:11:01.902Z,101173.17
2018-07-25T11:15:56.166Z,101170.11
2018-07-25T11:20:52.570Z,101157.37
2018-07-25T11:25:52.028Z,101158.97
2018-07-25T11:30:56.735Z,101159.95
2018-07-25T11:35:57.085Z,101146.16
2018-07-25T11:40:57.072Z,101151.54
2018-07-25T11:46:28.852Z,101143.43
2018-07-25T11:51:25.798Z,101142.53
2018-07-25T12:21:58.469Z,101109.80
2018-07-25T12:28:19.070Z,101103.34
2018-07-25T12:40:20.680Z,101099.20
2018-07-25T12:51:55.400Z,101081.05
2018-07-25T12:57:10.771Z,101079.68
2018-07-25T13:02:10.091Z,101089.30
2018-07-25T13:07:08.801Z,101087.27
2018-07-25T13:12:07.885Z,101080.66
2018-07-25T13:17:11.401Z,101080.22
2018-07-25T13:22:08.288Z,101073.30
2018-07-25T13:27:09.640Z,101072.70
2018-07-25T13:38:02.692Z,101070.09
2018-07-25T14:02:29.929Z,101050.81
2018-07-25T14:13:50.581Z,101039.48
2018-07-25T14:24:56.266Z,101032.95
2018-07-25T14:40:00.892Z,101027.95
2018-07-25T14:45:44.092Z,101034.14
2018-07-25T16:33:53.284Z,101075.92
2018-07-25T16:38:46.440Z,101071.94
2018-07-25T16:43:37.553Z,101076.11
2018-07-25T16:48:30.789Z,101066.95
2018-07-25T16:53:22.864Z,101059.29
2018-07-25T16:58:15.328Z,101053.70
2018-07-25T17:03:08.961Z,101050.77
2018-07-25T17:08:04.560Z,101051.03
2018-07-25T17:12:58.077Z,101057.45
2018-07-25T17:17:51.740Z,101050.78
2018-07-25T17:22:45.445Z,101051.37
2018-07-25T17:27:39.948Z,101051.17
2018-07-25T17:32:35.693Z,101054.79
2018-07-25T17:37:30.266Z,101062.48
2018-07-25T17:42:23.685Z,101072.09
2018-07-25T17:47:18.364Z,101072.08
2018-07-25T17:52:11.885Z,101075.20
2018-07-25T17:57:05.597Z,101081.77
2018-07-25T18:01:59.453Z,101089.02
2018-07-25T18:06:53.132Z,101091.50
2018-07-25T18:11:48.428Z,101098.13
2018-07-25T18:16:41.558Z,101102.91
2018-07-25T18:21:35.209Z,101103.36
2018-07-25T18:26:28.737Z,101104.13
2018-07-25T18:31:22.223Z,101113.22
2018-07-25T18:36:17.432Z,101113.39
2018-07-25T18:41:17.774Z,101114.84
2018-07-25T18:46:09.660Z,101118.31
2018-07-25T18:51:03.335Z,101122.91
2018-07-25T18:55:57.057Z,101126.59
2018-07-25T19:00:50.331Z,101129.73
2018-07-25T19:05:43.737Z,101134.16
2018-07-25T19:10:37.192Z,101145.94
2018-07-25T19:15:30.508Z,101168.52
2018-07-25T19:20:24.310Z,101183.93
2018-07-25T19:25:17.533Z,101193.63
2018-07-25T19:30:11.117Z,101194.47
2018-07-25T19:35:04.626Z,101200.41
2018-07-25T19:39:58.053Z,101204.55
2018-07-25T19:44:51.344Z,101203.86
2018-07-25T19:49:44.808Z,101214.62
2018-07-25T19:54:38.700Z,101217.16
2018-07-25T19:59:35.688Z,101214.97
2018-07-25T20:04:28.004Z,101203.95
2018-07-25T20:09:21.167Z,101204.38
2018-07-25T20:14:14.687Z,101201.06
2018-07-25T20:19:08.165Z,101202.09
2018-07-25T20:24:02.261Z,101201.05
2018-07-25T20:28:55.660Z,101201.12
2018-07-25T20:33:48.993Z,101199.58
2018-07-25T20:38:42.318Z,101197.42
2018-07-25T20:43:35.846Z,101195.76
2018-07-25T20:48:29.632Z,101197.75
2018-07-25T20:53:23.026Z,101194.24
2018-07-25T20:58:16.421Z,101198.80
2018-07-25T21:03:09.695Z,101206.37
2018-07-25T21:08:05.173Z,101203.59
2018-07-25T21:12:59.479Z,101201.83
2018-07-25T21:17:52.701Z,101199.91
2018-07-25T21:22:45.862Z,101199.22
2018-07-25T21:27:39.496Z,101208.42
2018-07-25T21:32:32.972Z,101206.13
2018-07-25T21:37:26.350Z,101202.91
2018-07-25T21:42:21.873Z,101201.33
2018-07-25T21:47:14.636Z,101207.83
2018-07-25T21:52:08.091Z,101209.05
2018-07-25T21:57:01.610Z,101204.22
2018-07-25T22:01:55.952Z,101203.48
2018-07-25T22:06:49.346Z,101203.69
2018-07-25T22:11:42.692Z,101206.43
2018-07-25T22:16:35.941Z,101206.01
2018-07-25T22:21:30.343Z,101200.55
2018-07-25T22:26:23.665Z,101196.32
2018-07-25T22:31:17.264Z,101192.43
2018-07-25T22:36:10.513Z,101200.81
2018-07-25T22:41:05.329Z,101200.59
2018-07-25T22:45:58.548Z,101198.67
2018-07-25T22:50:55.960Z,101199.83
2018-07-25T22:55:48.240Z,101198.66
2018-07-25T23:00:41.541Z,101198.38
2018-07-25T23:05:35.075Z,101201.06
2018-07-25T23:10:29.628Z,101208.10
2018-07-25T23:15:22.767Z,101206.02
2018-07-25T23:20:16.381Z,101201.73
2018-07-25T23:25:09.955Z,101199.52
2018-07-25T23:30:03.332Z,101196.55
2018-07-25T23:34:56.664Z,101200.81
2018-07-25T23:39:50.928Z,101196.86
2018-07-25T23:44:44.068Z,101201.62
2018-07-25T23:49:37.532Z,101189.39
2018-07-25T23:54:32.972Z,101186.66
2018-07-25T23:59:25.953Z,101185.98
